Time;durP1;ratioP1;P1;durP2;ratioP2;P2;SDS_P1;SDS_P2;PMS_P1;PMS_P2;Temp;Humidity;BMP_temperature;BMP_pressure;BME280_temperature;BME280_humidity;BME280_pressure;Samples;Min_cycle;Max_cycle;Signal;HPM_P1;HPM_P2
2023/08/08 00:01:13;;;;;;;6.68;3.92;;;16.30;73.60;;;;;;5053887;28;20021;-70
2023/08/08 00:03:40;;;;;;;7.13;3.55;;;16.40;72.30;;;;;;5053917;28;20112;-70
2023/08/08 00:06:08;;;;;;;7.40;4.07;;;16.30;71.20;;;;;;5053697;28;20037;-70
2023/08/08 00:08:36;;;;;;;9.70;5.18;;;16.30;72.00;;;;;;5054850;28;20140;-70
2023/08/08 00:11:03;;;;;;;5.65;4.45;;;16.40;72.70;;;;;;5054720;28;20371;-70
2023/08/08 00:13:32;;;;;;;7.15;4.10;;;16.40;72.60;;;;;;5054751;28;20037;-69
2023/08/08 00:16:00;;;;;;;11.48;6.30;;;16.50;72.10;;;;;;5053710;28;20029;-70
2023/08/08 00:18:27;;;;;;;6.68;4.05;;;16.70;73.10;;;;;;5056167;28;20026;-69
2023/08/08 00:20:55;;;;;;;6.28;4.15;;;16.90;71.40;;;;;;5058920;28;20142;-68
2023/08/08 00:23:23;;;;;;;8.13;4.25;;;16.80;70.00;;;;;;5058794;28;20021;-68
2023/08/08 00:25:51;;;;;;;7.47;3.17;;;16.80;70.40;;;;;;5057812;28;20029;-68
2023/08/08 00:28:18;;;;;;;6.38;4.07;;;17.00;68.80;;;;;;5057658;28;20016;-68
2023/08/08 00:30:46;;;;;;;4.72;2.60;;;17.00;69.40;;;;;;5057666;28;20025;-68
2023/08/08 00:33:13;;;;;;;6.15;2.50;;;17.20;69.40;;;;;;5057622;28;20033;-68
2023/08/08 00:35:41;;;;;;;5.18;2.80;;;17.10;69.10;;;;;;5058664;28;20027;-68
2023/08/08 00:38:09;;;;;;;3.33;2.40;;;17.80;67.30;;;;;;5058456;28;20105;-69
2023/08/08 00:40:36;;;;;;;5.22;2.42;;;18.10;65.60;;;;;;5057562;28;20535;-69
2023/08/08 00:43:04;;;;;;;4.95;2.40;;;18.40;64.30;;;;;;5058607;28;20025;-69
2023/08/08 00:45:32;;;;;;;3.50;2.20;;;18.40;66.10;;;;;;5058463;28;20045;-69
2023/08/08 00:47:59;;;;;;;4.88;2.80;;;18.50;63.90;;;;;;5058382;28;20355;-69
2023/08/08 00:50:27;;;;;;;4.65;2.45;;;18.90;63.50;;;;;;5057295;28;20037;-69
2023/08/08 00:52:55;;;;;;;5.32;2.35;;;19.50;61.40;;;;;;5057388;28;20032;-71
2023/08/08 00:55:23;;;;;;;4.07;2.20;;;20.00;60.20;;;;;;5058546;28;20025;-71
2023/08/08 00:57:51;;;;;;;5.45;2.10;;;20.60;58.00;;;;;;5058085;28;20043;-71
2023/08/08 01:00:19;;;;;;;3.75;2.40;;;20.50;56.50;;;;;;5057964;28;20055;-71
2023/08/08 01:02:46;;;;;;;6.78;2.13;;;20.90;57.50;;;;;;5057103;28;20020;-70
2023/08/08 01:05:14;;;;;;;3.78;1.83;;;21.20;56.00;;;;;;5056979;28;20143;-71
2023/08/08 01:08:01;;;;;;;6.20;1.75;;;21.40;55.70;;;;;;5057145;28;20048;-70
2023/08/08 01:10:37;;;;;;;3.80;1.60;;;21.60;56.30;;;;;;5058208;28;20350;-70
2023/08/08 01:13:15;;;;;;;5.28;2.00;;;22.30;54.60;;;;;;5058141;28;20090;-71
2023/08/08 01:15:43;;;;;;;5.93;1.60;;;22.20;54.70;;;;;;5056979;28;20025;-73
2023/08/08 01:18:11;;;;;;;4.70;1.50;;;22.30;52.20;;;;;;5056802;28;20028;-70
2023/08/08 01:20:40;;;;;;;5.40;1.88;;;21.40;55.30;;;;;;5040462;28;20032;-69
2023/08/08 01:23:40;;;;;;;3.00;1.58;;;20.90;56.30;;;;;;5056795;28;20029;-70
2023/08/08 01:26:07;;;;;;;3.58;1.60;;;21.00;54.90;;;;;;5024377;28;20041;-71
2023/08/08 01:28:35;;;;;;;2.72;1.30;;;21.10;54.40;;;;;;5055655;28;20029;-64
2023/08/08 01:31:03;;;;;;;5.75;1.30;;;20.60;55.30;;;;;;5057550;28;20032;-63
2023/08/08 01:33:30;;;;;;;2.65;1.42;;;20.30;56.00;;;;;;5056177;28;20032;-64
2023/08/08 01:36:05;;;;;;;3.65;1.33;;;19.70;56.20;;;;;;5057297;28;20025;-64
2023/08/08 01:38:39;;;;;;;3.03;1.30;;;20.20;56.10;;;;;;5056422;28;20025;-64
2023/08/08 01:41:08;;;;;;;4.55;1.70;;;20.50;55.40;;;;;;5056256;28;20049;-63
2023/08/08 01:43:39;;;;;;;3.17;1.30;;;20.30;56.20;;;;;;5057337;28;20021;-62
2023/08/08 01:46:07;;;;;;;5.25;2.78;;;21.10;54.80;;;;;;5056325;28;20344;-62
2023/08/08 01:48:35;;;;;;;3.25;1.10;;;21.40;54.40;;;;;;5057066;28;20025;-62
2023/08/08 01:51:04;;;;;;;3.10;1.20;;;22.10;51.90;;;;;;5056238;28;20126;-62
2023/08/08 01:53:31;;;;;;;5.05;1.40;;;22.00;49.70;;;;;;5057972;28;20100;-63
2023/08/08 01:55:59;;;;;;;2.40;1.30;;;21.80;50.90;;;;;;5057818;28;20276;-63
2023/08/08 01:58:26;;;;;;;4.68;1.65;;;22.40;50.70;;;;;;5056282;28;20029;-63
2023/08/08 02:00:54;;;;;;;2.90;1.48;;;22.00;51.50;;;;;;5056918;28;20057;-62
2023/08/08 02:03:21;;;;;;;4.75;1.60;;;21.70;51.20;;;;;;5055767;28;20036;-63
2023/08/08 02:05:49;;;;;;;3.75;1.67;;;21.70;51.80;;;;;;5056732;28;20044;-63
2023/08/08 02:08:18;;;;;;;3.50;1.30;;;22.10;48.90;;;;;;5056841;28;20116;-63
2023/08/08 02:10:45;;;;;;;2.80;1.50;;;22.10;49.60;;;;;;5056874;28;20052;-63
2023/08/08 02:13:13;;;;;;;3.80;1.50;;;22.10;49.80;;;;;;5055725;28;20530;-63
2023/08/08 02:15:40;;;;;;;3.30;1.40;;;20.40;52.50;;;;;;5056702;28;20060;-62
2023/08/08 02:18:09;;;;;;;5.38;1.48;;;20.20;53.10;;;;;;5056617;28;20017;-62
2023/08/08 02:20:37;;;;;;;3.58;1.70;;;20.30;53.10;;;;;;5056459;28;20029;-62
2023/08/08 02:23:05;;;;;;;4.20;1.35;;;21.20;50.70;;;;;;5056427;28;20021;-63
2023/08/08 02:25:32;;;;;;;3.80;1.20;;;21.20;50.10;;;;;;5056381;28;20017;-63
2023/08/08 02:28:00;;;;;;;2.78;1.27;;;21.30;47.40;;;;;;5055208;28;20025;-62
2023/08/08 02:30:28;;;;;;;3.78;1.40;;;21.20;47.60;;;;;;5056263;28;20082;-63
2023/08/08 02:32:55;;;;;;;4.80;1.40;;;21.00;48.30;;;;;;5056303;28;20021;-62
2023/08/08 02:35:23;;;;;;;2.92;1.50;;;20.70;49.80;;;;;;5056026;28;20028;-63
2023/08/08 02:37:50;;;;;;;4.65;1.45;;;20.30;50.50;;;;;;5055163;28;20020;-63
2023/08/08 02:40:18;;;;;;;4.95;1.50;;;20.50;50.60;;;;;;5055538;28;20347;-63
2023/08/08 02:42:45;;;;;;;3.72;1.40;;;21.00;48.20;;;;;;5054850;28;20021;-63
2023/08/08 02:45:13;;;;;;;3.22;1.40;;;21.60;48.30;;;;;;5055429;28;20017;-63
2023/08/08 02:47:40;;;;;;;3.25;1.30;;;22.20;46.50;;;;;;5056091;28;20024;-64
2023/08/08 02:50:08;;;;;;;4.03;1.58;;;22.00;47.10;;;;;;5056163;28;20071;-63
2023/08/08 02:52:35;;;;;;;2.78;1.27;;;22.10;47.10;;;;;;5055648;28;20025;-61
2023/08/08 02:55:03;;;;;;;3.95;1.25;;;22.10;46.40;;;;;;5052864;28;20080;-63
2023/08/08 02:57:31;;;;;;;2.78;1.40;;;22.30;47.30;;;;;;5055119;28;20012;-63
2023/08/08 02:59:58;;;;;;;2.40;1.35;;;22.30;46.90;;;;;;5055301;28;20112;-61
2023/08/08 03:02:25;;;;;;;3.92;1.38;;;22.40;47.80;;;;;;5054445;28;20028;-62
2023/08/08 03:04:53;;;;;;;4.07;1.55;;;22.60;47.60;;;;;;5054821;28;20344;-63
2023/08/08 03:07:20;;;;;;;2.28;1.30;;;23.10;45.00;;;;;;5054815;28;20041;-64
2023/08/08 03:09:48;;;;;;;3.28;1.40;;;23.40;44.10;;;;;;5053068;28;20021;-62
2023/08/08 03:12:15;;;;;;;3.03;1.50;;;23.50;45.70;;;;;;5055192;28;20025;-62
2023/08/08 03:14:43;;;;;;;2.88;1.35;;;23.40;44.70;;;;;;5055020;28;20036;-63
2023/08/08 03:17:10;;;;;;;3.83;1.83;;;23.30;44.60;;;;;;5053533;28;20367;-62
2023/08/08 03:19:38;;;;;;;3.90;1.42;;;23.30;43.70;;;;;;5054280;28;20029;-63
2023/08/08 03:22:05;;;;;;;4.72;1.67;;;23.10;45.40;;;;;;5055327;28;20042;-63
2023/08/08 03:24:33;;;;;;;3.08;1.55;;;23.00;46.20;;;;;;5055499;28;20021;-62
2023/08/08 03:27:00;;;;;;;3.40;1.38;;;23.50;44.20;;;;;;5054984;28;20029;-62
2023/08/08 03:29:28;;;;;;;2.50;1.50;;;23.30;44.70;;;;;;5055354;28;20071;-62
2023/08/08 03:31:55;;;;;;;2.58;1.27;;;23.60;43.70;;;;;;5055346;28;20028;-64
2023/08/08 03:34:23;;;;;;;3.40;1.48;;;23.00;43.90;;;;;;5055235;28;20453;-63
2023/08/08 03:36:51;;;;;;;3.95;1.40;;;23.60;44.50;;;;;;5053786;28;20036;-62
2023/08/08 03:39:18;;;;;;;4.35;1.30;;;24.30;43.50;;;;;;5054039;28;20029;-63
2023/08/08 03:41:46;;;;;;;2.05;1.42;;;24.80;41.90;;;;;;5054916;28;20112;-63
2023/08/08 03:44:14;;;;;;;6.03;1.63;;;24.90;41.40;;;;;;5053933;28;20330;-63
2023/08/08 03:46:41;;;;;;;3.08;1.55;;;24.20;44.80;;;;;;5054756;28;20047;-62
2023/08/08 03:49:09;;;;;;;3.90;1.80;;;23.70;47.30;;;;;;5054621;28;20025;-64
2023/08/08 03:51:36;;;;;;;4.88;1.73;;;23.00;48.10;;;;;;5054861;28;20157;-63
2023/08/08 03:54:04;;;;;;;4.30;1.63;;;22.10;50.90;;;;;;5054102;28;20104;-64
2023/08/08 03:56:31;;;;;;;5.20;2.28;;;21.70;51.00;;;;;;5053916;28;20556;-63
2023/08/08 03:58:59;;;;;;;4.70;2.30;;;20.80;53.80;;;;;;5054997;28;20367;-63
2023/08/08 04:01:27;;;;;;;4.80;1.80;;;20.10;56.10;;;;;;5055034;28;20467;-63
2023/08/08 04:03:54;;;;;;;4.85;2.00;;;20.20;56.90;;;;;;5053940;28;20029;-63
2023/08/08 04:06:22;;;;;;;3.65;2.05;;;20.10;56.40;;;;;;5054698;28;20094;-63
2023/08/08 04:08:49;;;;;;;3.33;1.50;;;20.00;57.40;;;;;;5054590;28;20017;-64
2023/08/08 04:11:18;;;;;;;4.13;2.00;;;20.30;56.50;;;;;;5053862;28;20114;-63
2023/08/08 04:13:45;;;;;;;5.95;2.33;;;20.60;57.20;;;;;;5053738;28;20040;-63
2023/08/08 04:16:13;;;;;;;3.90;2.30;;;21.50;54.70;;;;;;5054640;28;20017;-63
2023/08/08 04:18:40;;;;;;;5.53;2.20;;;21.90;53.80;;;;;;5053746;28;20025;-64
2023/08/08 04:21:07;;;;;;;4.38;2.35;;;22.50;52.90;;;;;;5054787;28;20029;-63
2023/08/08 04:23:35;;;;;;;4.10;1.90;;;22.50;51.80;;;;;;5054683;28;20024;-63
2023/08/08 04:26:03;;;;;;;2.78;1.77;;;22.30;53.40;;;;;;5054691;28;20025;-62
2023/08/08 04:28:30;;;;;;;3.08;1.60;;;22.40;52.10;;;;;;5053471;28;20071;-62
2023/08/08 04:30:58;;;;;;;3.92;1.73;;;22.20;52.40;;;;;;5053562;28;20090;-64
2023/08/08 04:33:25;;;;;;;3.42;2.00;;;21.80;53.70;;;;;;5054570;28;20416;-64
2023/08/08 04:35:53;;;;;;;5.25;1.75;;;22.10;52.50;;;;;;5054597;28;20462;-64
2023/08/08 04:38:20;;;;;;;6.45;2.05;;;22.10;51.80;;;;;;5053442;28;20021;-65
2023/08/08 04:40:48;;;;;;;3.13;1.70;;;21.40;54.00;;;;;;5054603;28;20401;-65
2023/08/08 04:43:15;;;;;;;4.18;2.13;;;21.50;53.60;;;;;;5053582;28;20017;-66
2023/08/08 04:45:43;;;;;;;7.80;1.88;;;21.60;53.30;;;;;;5054571;28;20067;-65
2023/08/08 04:48:10;;;;;;;3.15;2.00;;;21.40;54.10;;;;;;5053422;28;20120;-65
2023/08/08 04:50:39;;;;;;;3.95;2.10;;;21.60;54.00;;;;;;5053534;28;20035;-65
2023/08/08 04:53:06;;;;;;;4.05;1.60;;;21.80;53.70;;;;;;5053567;28;20363;-65
2023/08/08 04:55:34;;;;;;;5.25;1.77;;;22.20;52.40;;;;;;5054465;28;20016;-65
2023/08/08 04:58:01;;;;;;;5.57;1.95;;;22.00;53.20;;;;;;5054367;28;20037;-66
2023/08/08 05:00:29;;;;;;;3.83;1.80;;;21.40;54.10;;;;;;5054286;28;20083;-66
2023/08/08 05:02:56;;;;;;;4.18;1.73;;;21.60;55.00;;;;;;5053360;28;20028;-66
2023/08/08 05:05:24;;;;;;;4.07;2.15;;;21.10;55.30;;;;;;5055782;28;20347;-65
2023/08/08 05:07:51;;;;;;;4.05;1.98;;;20.90;56.10;;;;;;5057874;28;20136;-65
2023/08/08 05:10:19;;;;;;;3.63;1.60;;;20.70;56.40;;;;;;5057784;28;20078;-64
2023/08/08 05:12:46;;;;;;;3.35;1.90;;;20.60;56.20;;;;;;5057757;28;20447;-65
2023/08/08 05:15:14;;;;;;;3.58;1.67;;;20.10;57.80;;;;;;5057904;28;20021;-66
2023/08/08 05:17:41;;;;;;;3.28;1.60;;;21.30;55.20;;;;;;5057777;28;20344;-66
2023/08/08 05:20:10;;;;;;;3.50;1.73;;;22.00;53.70;;;;;;5057842;28;20078;-65
2023/08/08 05:22:38;;;;;;;4.97;2.00;;;22.50;52.20;;;;;;5056570;28;20115;-65
2023/08/08 05:25:06;;;;;;;5.75;1.70;;;23.20;51.20;;;;;;5057638;28;20029;-65
2023/08/08 05:27:34;;;;;;;3.75;1.80;;;22.80;51.40;;;;;;5057476;28;20455;-66
2023/08/08 05:30:02;;;;;;;5.00;2.10;;;22.30;52.10;;;;;;5056743;28;20036;-66
2023/08/08 05:32:30;;;;;;;4.32;1.98;;;22.10;52.40;;;;;;5056689;28;20025;-65
2023/08/08 05:34:58;;;;;;;4.00;1.67;;;22.40;51.90;;;;;;5057607;28;20035;-65
2023/08/08 05:37:25;;;;;;;5.30;2.03;;;22.20;51.80;;;;;;5057301;28;20028;-66
2023/08/08 05:39:54;;;;;;;5.25;1.77;;;22.60;52.40;;;;;;5057374;28;20029;-66
2023/08/08 05:42:22;;;;;;;4.45;2.10;;;22.70;51.10;;;;;;5056213;28;20025;-65
2023/08/08 05:44:49;;;;;;;5.43;2.08;;;22.80;51.50;;;;;;5057056;28;20039;-65
2023/08/08 05:47:17;;;;;;;4.72;1.95;;;23.60;49.60;;;;;;5057199;28;20111;-64
2023/08/08 05:49:44;;;;;;;4.35;1.90;;;23.40;49.40;;;;;;5056193;28;20025;-65
2023/08/08 05:52:12;;;;;;;4.38;1.67;;;23.60;49.20;;;;;;5057233;28;20163;-66
2023/08/08 05:54:39;;;;;;;3.78;1.98;;;23.60;49.50;;;;;;5056182;28;20056;-66
2023/08/08 05:57:07;;;;;;;4.25;1.73;;;23.50;49.60;;;;;;5056810;28;20111;-66
2023/08/08 05:59:35;;;;;;;5.13;1.83;;;23.60;48.90;;;;;;5057067;28;20151;-66
2023/08/08 06:02:02;;;;;;;4.25;1.90;;;23.10;49.50;;;;;;5057042;28;20036;-66
2023/08/08 06:04:30;;;;;;;2.80;1.70;;;23.10;49.70;;;;;;5056370;28;20032;-67
2023/08/08 06:06:57;;;;;;;2.10;1.48;;;23.40;49.20;;;;;;5055467;28;20052;-66
2023/08/08 06:09:27;;;;;;;7.07;2.58;;;23.60;48.70;;;;;;5055787;28;20021;-66
2023/08/08 06:11:55;;;;;;;4.85;1.90;;;23.90;47.90;;;;;;5055963;28;20489;-65
2023/08/08 06:14:22;;;;;;;4.93;1.70;;;23.40;48.80;;;;;;5056792;28;20028;-65
2023/08/08 06:16:50;;;;;;;5.47;1.75;;;22.30;50.90;;;;;;5056528;28;20048;-64
2023/08/08 06:19:18;;;;;;;3.97;1.80;;;20.10;55.40;;;;;;5055460;28;20032;-64
2023/08/08 06:21:48;;;;;;;5.28;2.00;;;19.10;58.20;;;;;;5055482;28;20451;-64
2023/08/08 06:24:16;;;;;;;3.80;1.70;;;18.70;59.80;;;;;;5055509;28;20025;-65
2023/08/08 06:26:43;;;;;;;2.85;1.55;;;18.60;60.10;;;;;;5055533;28;20347;-65
2023/08/08 06:29:12;;;;;;;5.03;2.00;;;18.40;60.90;;;;;;5055411;28;20017;-65
2023/08/08 06:31:39;;;;;;;3.20;1.90;;;18.20;60.40;;;;;;5056495;28;20059;-65
2023/08/08 06:34:07;;;;;;;3.75;1.75;;;18.00;60.80;;;;;;5056414;28;20029;-66
2023/08/08 06:36:35;;;;;;;4.55;1.90;;;17.80;61.70;;;;;;5055335;28;20020;-65
2023/08/08 06:39:03;;;;;;;5.88;2.10;;;17.80;61.20;;;;;;5056341;28;20017;-65
2023/08/08 06:41:30;;;;;;;6.07;1.88;;;17.70;61.50;;;;;;5056130;28;20071;-65
2023/08/08 06:43:58;;;;;;;6.25;2.10;;;17.70;62.00;;;;;;5055087;28;20020;-64
2023/08/08 06:46:26;;;;;;;4.25;2.30;;;17.60;62.70;;;;;;5056014;28;20017;-65
2023/08/08 06:48:56;;;;;;;5.95;2.05;;;17.50;63.00;;;;;;5054823;28;20053;-64
2023/08/08 06:51:25;;;;;;;2.83;1.60;;;17.50;63.60;;;;;;5054883;28;20029;-64
2023/08/08 06:53:53;;;;;;;3.10;1.90;;;17.40;64.10;;;;;;5054938;28;20036;-64
2023/08/08 06:56:21;;;;;;;6.20;2.20;;;17.40;64.50;;;;;;5055891;28;20021;-63
2023/08/08 06:58:48;;;;;;;5.75;1.98;;;17.30;65.00;;;;;;5055598;28;20017;-63
2023/08/08 07:01:16;;;;;;;3.67;1.80;;;17.20;65.50;;;;;;5054155;28;20127;-64
2023/08/08 07:03:43;;;;;;;4.63;2.25;;;17.20;65.90;;;;;;5055465;28;20025;-62
2023/08/08 07:06:11;;;;;;;5.18;2.10;;;17.10;66.30;;;;;;5054139;28;20052;-63
2023/08/08 07:08:42;;;;;;;7.40;2.15;;;17.00;67.00;;;;;;5055430;28;20017;-63
2023/08/08 07:11:10;;;;;;;3.28;1.95;;;17.00;67.30;;;;;;5055429;28;20025;-63
2023/08/08 07:13:38;;;;;;;4.35;1.90;;;16.80;68.00;;;;;;5055491;28;20024;-63
2023/08/08 07:16:09;;;;;;;5.38;2.47;;;16.80;68.20;;;;;;5055378;28;20048;-64
2023/08/08 07:18:37;;;;;;;4.43;2.22;;;16.70;68.70;;;;;;5054098;28;20099;-64
2023/08/08 07:21:05;;;;;;;4.60;2.30;;;16.70;69.00;;;;;;5054247;28;20098;-64
2023/08/08 07:23:33;;;;;;;5.65;2.17;;;16.60;69.30;;;;;;5054973;28;20495;-64
2023/08/08 07:26:01;;;;;;;6.40;2.30;;;16.50;69.80;;;;;;5054211;28;20029;-64
2023/08/08 07:28:28;;;;;;;6.45;1.83;;;16.40;70.30;;;;;;5054607;28;20052;-63
2023/08/08 07:30:56;;;;;;;3.90;1.70;;;16.40;70.70;;;;;;5055060;28;20067;-64
2023/08/08 07:33:23;;;;;;;4.20;2.00;;;16.40;70.90;;;;;;5054038;28;20024;-63
2023/08/08 07:35:51;;;;;;;4.68;2.25;;;16.30;71.20;;;;;;5054837;28;20078;-63
2023/08/08 07:38:18;;;;;;;6.57;2.00;;;16.20;71.40;;;;;;5055002;28;20100;-62
2023/08/08 07:40:47;;;;;;;2.90;1.90;;;16.20;71.80;;;;;;5054909;28;20029;-63
2023/08/08 07:43:15;;;;;;;5.97;1.83;;;16.10;72.00;;;;;;5053738;28;20040;-63
2023/08/08 07:45:43;;;;;;;5.85;2.60;;;16.10;72.10;;;;;;5054838;28;20021;-62
2023/08/08 07:48:10;;;;;;;5.20;2.42;;;16.00;72.40;;;;;;5053475;28;20031;-62
2023/08/08 07:50:38;;;;;;;7.93;1.83;;;16.00;72.60;;;;;;5054477;28;20064;-62
2023/08/08 07:53:05;;;;;;;3.42;2.30;;;16.00;72.70;;;;;;5053341;28;20036;-62
2023/08/08 07:55:33;;;;;;;6.07;2.20;;;15.80;73.00;;;;;;5054536;28;20082;-62
2023/08/08 07:58:01;;;;;;;7.57;3.45;;;15.80;73.40;;;;;;5054184;28;20025;-62
2023/08/08 08:00:28;;;;;;;9.02;3.55;;;15.70;73.20;;;;;;5053298;28;20021;-62
2023/08/08 08:02:56;;;;;;;8.10;4.47;;;15.60;73.60;;;;;;5053233;28;20103;-62
2023/08/08 08:05:23;;;;;;;12.77;3.78;;;15.50;74.00;;;;;;5052693;28;20096;-64
2023/08/08 08:07:51;;;;;;;8.15;3.25;;;15.50;74.20;;;;;;5052840;28;20031;-64
2023/08/08 08:10:18;;;;;;;8.93;3.58;;;15.40;74.60;;;;;;5054313;28;20410;-64
2023/08/08 08:12:46;;;;;;;6.32;2.67;;;15.30;74.70;;;;;;5054469;28;20172;-64
2023/08/08 08:15:14;;;;;;;5.25;2.65;;;15.30;74.90;;;;;;5053551;28;20090;-65
2023/08/08 08:17:41;;;;;;;8.25;3.20;;;15.30;75.20;;;;;;5053355;28;20044;-65
2023/08/08 08:20:11;;;;;;;6.55;3.05;;;15.30;75.10;;;;;;5053517;28;20044;-65
2023/08/08 08:22:39;;;;;;;7.30;2.42;;;15.20;75.70;;;;;;5053335;28;20116;-64
2023/08/08 08:25:09;;;;;;;5.45;2.38;;;15.20;75.60;;;;;;5054371;28;20044;-63
2023/08/08 08:27:37;;;;;;;5.38;2.70;;;15.20;75.70;;;;;;5053340;28;20017;-65
2023/08/08 08:30:09;;;;;;;9.60;3.03;;;15.20;75.60;;;;;;5054539;28;20059;-64
2023/08/08 08:32:38;;;;;;;7.82;3.20;;;15.10;75.80;;;;;;5054220;28;20024;-67
2023/08/08 08:35:06;;;;;;;7.10;3.10;;;15.00;76.10;;;;;;5053154;28;20056;-62
2023/08/08 08:37:34;;;;;;;8.73;3.30;;;14.80;76.80;;;;;;5052715;28;20538;-62
2023/08/08 08:40:04;;;;;;;5.40;2.70;;;14.60;77.30;;;;;;5056666;28;20031;-62
2023/08/08 08:42:34;;;;;;;4.85;2.50;;;14.50;77.80;;;;;;5057195;28;20028;-63
2023/08/08 08:45:05;;;;;;;6.80;3.63;;;14.30;78.40;;;;;;5057162;28;20020;-62
2023/08/08 08:47:36;;;;;;;6.10;3.03;;;14.00;79.20;;;;;;5057234;28;20053;-61
2023/08/08 08:50:05;;;;;;;9.55;3.85;;;14.00;79.30;;;;;;5057095;28;20032;-62
2023/08/08 08:52:32;;;;;;;7.32;2.95;;;14.00;79.50;;;;;;5057936;28;20443;-62
2023/08/08 08:55:00;;;;;;;5.63;3.05;;;13.70;80.50;;;;;;5057981;28;20082;-61
2023/08/08 08:57:29;;;;;;;6.18;3.20;;;13.50;81.20;;;;;;5056774;28;20032;-61
2023/08/08 08:59:57;;;;;;;8.15;3.47;;;13.50;81.10;;;;;;5056896;28;20526;-62
2023/08/08 09:02:25;;;;;;;7.90;3.63;;;13.60;80.70;;;;;;5057834;28;20040;-62
2023/08/08 09:04:54;;;;;;;7.50;4.13;;;13.60;80.20;;;;;;5056646;28;20024;-61
2023/08/08 09:07:27;;;;;;;11.43;3.97;;;13.50;80.80;;;;;;5057110;28;20167;-61
2023/08/08 09:09:55;;;;;;;8.73;4.65;;;13.40;81.20;;;;;;5057706;28;20021;-63
2023/08/08 09:12:24;;;;;;;9.00;4.93;;;13.30;81.70;;;;;;5057751;28;20469;-63
2023/08/08 09:14:56;;;;;;;6.05;4.68;;;13.10;82.20;;;;;;5057706;28;20029;-61
2023/08/08 09:17:27;;;;;;;6.13;4.25;;;13.00;82.70;;;;;;5056522;28;20109;-62
2023/08/08 09:19:58;;;;;;;7.40;4.40;;;12.90;83.20;;;;;;5056711;28;20087;-62
2023/08/08 09:22:27;;;;;;;7.53;3.75;;;12.80;83.40;;;;;;5056481;28;20029;-62
2023/08/08 09:24:55;;;;;;;11.07;4.53;;;12.80;83.50;;;;;;5056546;28;20021;-61
2023/08/08 09:27:22;;;;;;;10.20;3.63;;;12.70;83.70;;;;;;5057572;28;20100;-62
2023/08/08 09:29:51;;;;;;;6.05;4.03;;;12.70;83.70;;;;;;5056551;28;20029;-63
2023/08/08 09:32:19;;;;;;;6.47;4.57;;;12.80;83.60;;;;;;5057489;28;20021;-61
2023/08/08 09:34:47;;;;;;;7.18;4.45;;;12.70;83.50;;;;;;5056497;28;20053;-62
2023/08/08 09:37:14;;;;;;;8.57;4.80;;;12.80;82.40;;;;;;5056385;28;20066;-63
2023/08/08 09:39:42;;;;;;;8.35;5.32;;;12.80;82.20;;;;;;5057400;28;20029;-61
2023/08/08 09:42:11;;;;;;;7.90;5.97;;;12.70;82.10;;;;;;5056348;28;20108;-62
2023/08/08 09:44:39;;;;;;;6.72;5.00;;;12.60;82.40;;;;;;5057351;28;20028;-62
2023/08/08 09:47:06;;;;;;;8.43;5.50;;;12.30;83.60;;;;;;5057236;28;20021;-61
2023/08/08 09:49:36;;;;;;;10.70;6.22;;;12.30;84.10;;;;;;5055798;28;20034;-61
2023/08/08 09:52:04;;;;;;;10.23;6.05;;;12.40;83.40;;;;;;5057211;28;20454;-61
2023/08/08 09:54:32;;;;;;;11.07;7.10;;;12.50;83.00;;;;;;5057168;28;20025;-63
2023/08/08 09:57:00;;;;;;;12.05;7.53;;;12.40;83.10;;;;;;5057071;28;20056;-61
2023/08/08 09:59:28;;;;;;;14.10;9.50;;;12.20;83.90;;;;;;5056951;28;20021;-61
2023/08/08 10:01:58;;;;;;;16.40;10.20;;;12.10;84.50;;;;;;5056938;28;20028;-61
2023/08/08 10:04:26;;;;;;;14.98;9.18;;;12.00;85.00;;;;;;5056972;28;20024;-61
2023/08/08 10:06:53;;;;;;;13.15;8.20;;;11.90;85.60;;;;;;5056591;28;20041;-62
2023/08/08 10:09:21;;;;;;;14.43;8.27;;;11.70;86.00;;;;;;5055667;28;20048;-64
2023/08/08 10:11:49;;;;;;;11.85;6.40;;;11.70;86.10;;;;;;5055587;28;20020;-62
2023/08/08 10:14:17;;;;;;;13.80;7.32;;;11.70;86.20;;;;;;5056669;28;20021;-62
2023/08/08 10:16:44;;;;;;;14.20;7.20;;;11.60;86.10;;;;;;5056546;28;20029;-62
2023/08/08 10:19:12;;;;;;;10.23;5.70;;;11.50;86.20;;;;;;5055648;28;20072;-62
2023/08/08 10:21:45;;;;;;;12.30;7.18;;;11.50;86.50;;;;;;5055601;28;20028;-61
2023/08/08 10:24:13;;;;;;;10.90;6.60;;;11.60;85.80;;;;;;5055761;28;20374;-61
2023/08/08 10:27:01;;;;;;;10.15;6.18;;;11.50;86.10;;;;;;5055555;28;20025;-61
2023/08/08 10:29:32;;;;;;;9.85;5.85;;;11.40;86.50;;;;;;5056495;28;20021;-62
2023/08/08 10:32:03;;;;;;;10.20;5.88;;;11.40;86.50;;;;;;5055405;28;20035;-62
2023/08/08 10:34:44;;;;;;;11.88;7.07;;;11.40;86.50;;;;;;5056429;28;20036;-62
2023/08/08 10:37:17;;;;;;;9.75;5.68;;;11.30;86.40;;;;;;5055256;28;20025;-62
2023/08/08 10:40:11;;;;;;;11.63;5.53;;;11.30;86.50;;;;;;5055330;28;20451;-62
2023/08/08 10:42:47;;;;;;;10.80;6.10;;;11.30;86.50;;;;;;5055101;28;20028;-63
2023/08/08 10:45:17;;;;;;;11.35;6.65;;;11.40;86.40;;;;;;5055592;28;20032;-67
2023/08/08 10:47:47;;;;;;;12.73;7.57;;;11.30;86.60;;;;;;5056061;28;20100;-67
2023/08/08 10:50:22;;;;;;;13.23;7.28;;;11.40;87.00;;;;;;5055179;28;20021;-67
2023/08/08 10:52:57;;;;;;;11.10;7.75;;;11.30;86.50;;;;;;5055261;28;20079;-67
2023/08/08 10:55:27;;;;;;;9.48;6.93;;;11.20;87.10;;;;;;5055215;28;20029;-68
2023/08/08 10:57:57;;;;;;;12.43;8.27;;;11.10;87.60;;;;;;5055176;28;20032;-69
2023/08/08 11:00:34;;;;;;;10.90;8.43;;;11.10;87.60;;;;;;5056079;28;20021;-69
2023/08/08 11:03:04;;;;;;;16.40;10.20;;;11.20;87.70;;;;;;5054131;28;20028;-69
2023/08/08 11:05:34;;;;;;;13.75;9.55;;;11.20;87.70;;;;;;5055755;28;20041;-68
2023/08/08 11:08:03;;;;;;;13.70;8.63;;;11.30;87.70;;;;;;5055966;28;20100;-69
2023/08/08 11:10:40;;;;;;;12.30;8.00;;;11.40;87.20;;;;;;5054779;28;20029;-69
2023/08/08 11:13:08;;;;;;;13.68;8.80;;;11.40;87.20;;;;;;5054972;28;20021;-69
2023/08/08 11:15:39;;;;;;;12.38;7.70;;;11.40;87.60;;;;;;5054638;28;20370;-68
2023/08/08 11:18:08;;;;;;;15.40;7.53;;;11.40;87.80;;;;;;5054555;28;20040;-68
2023/08/08 11:20:37;;;;;;;13.10;7.70;;;11.50;87.90;;;;;;5054424;28;20032;-69
2023/08/08 11:23:09;;;;;;;13.18;7.60;;;11.50;87.60;;;;;;5054634;28;20021;-68
2023/08/08 11:25:40;;;;;;;10.80;6.80;;;11.60;87.50;;;;;;5054482;28;20100;-68
2023/08/08 11:28:08;;;;;;;11.15;7.55;;;11.60;87.50;;;;;;5055460;28;20100;-68
2023/08/08 11:30:40;;;;;;;10.70;7.22;;;11.70;87.50;;;;;;5054444;28;20021;-68
2023/08/08 11:33:08;;;;;;;12.13;7.03;;;11.80;86.90;;;;;;5055520;28;20031;-68
2023/08/08 11:35:35;;;;;;;11.02;7.00;;;11.90;86.80;;;;;;5055418;28;20043;-68
2023/08/08 11:38:07;;;;;;;13.48;7.30;;;11.80;87.10;;;;;;5054141;28;20025;-67
2023/08/08 11:40:35;;;;;;;14.25;7.28;;;11.80;86.80;;;;;;5055224;28;20107;-68
2023/08/08 11:43:03;;;;;;;15.07;7.35;;;11.80;87.00;;;;;;5055285;28;20490;-69
2023/08/08 11:45:32;;;;;;;10.90;6.85;;;11.80;87.10;;;;;;5054140;28;20425;-68
2023/08/08 11:48:00;;;;;;;15.02;8.52;;;11.90;87.10;;;;;;5054802;28;20021;-68
2023/08/08 11:50:29;;;;;;;12.23;7.20;;;12.00;86.80;;;;;;5053867;28;20025;-69
2023/08/08 11:52:57;;;;;;;11.52;7.15;;;12.10;86.60;;;;;;5055154;28;20025;-71
2023/08/08 11:55:31;;;;;;;10.30;6.57;;;12.10;85.90;;;;;;5055213;28;20059;-71
2023/08/08 11:58:02;;;;;;;10.48;7.60;;;12.20;85.80;;;;;;5054010;28;20025;-70
2023/08/08 12:00:32;;;;;;;9.13;6.75;;;12.20;85.60;;;;;;5055070;28;20348;-70
2023/08/08 12:03:04;;;;;;;10.88;7.10;;;12.10;85.80;;;;;;5054418;28;20354;-71
2023/08/08 12:05:38;;;;;;;11.10;7.32;;;12.00;85.90;;;;;;5054737;28;20069;-71
2023/08/08 12:08:07;;;;;;;11.48;7.68;;;12.00;85.90;;;;;;5054061;28;20071;-71
2023/08/08 12:10:34;;;;;;;11.32;7.63;;;11.90;86.70;;;;;;5054238;28;20021;-70
2023/08/08 12:13:02;;;;;;;12.55;7.18;;;11.80;86.80;;;;;;5056406;28;20112;-70
2023/08/08 12:15:36;;;;;;;9.57;6.88;;;11.80;86.50;;;;;;5060725;28;20126;-71
2023/08/08 12:18:04;;;;;;;11.80;6.97;;;11.80;86.50;;;;;;5060675;28;20021;-70
2023/08/08 12:20:32;;;;;;;10.52;6.45;;;11.80;86.70;;;;;;5060419;28;20454;-70
2023/08/08 12:23:00;;;;;;;11.23;6.68;;;11.70;87.10;;;;;;5061490;28;20028;-69
2023/08/08 12:25:28;;;;;;;10.85;6.47;;;11.70;86.80;;;;;;5044200;28;20021;-70
2023/08/08 12:27:56;;;;;;;11.23;7.65;;;11.60;87.10;;;;;;5060346;28;20079;-70
2023/08/08 12:30:23;;;;;;;8.80;6.90;;;11.60;87.00;;;;;;5060556;28;20029;-70
2023/08/08 12:32:51;;;;;;;9.65;6.90;;;11.60;86.90;;;;;;5061556;28;20021;-70
2023/08/08 12:35:20;;;;;;;10.90;6.82;;;11.60;86.80;;;;;;5060861;28;20024;-70
2023/08/08 12:37:48;;;;;;;9.07;7.10;;;11.40;87.20;;;;;;5062105;28;20028;-70
2023/08/08 12:40:15;;;;;;;10.23;6.93;;;11.30;88.00;;;;;;5060578;28;20029;-70
2023/08/08 12:42:42;;;;;;;12.88;8.25;;;11.30;87.70;;;;;;5061228;28;20035;-70
2023/08/08 12:45:10;;;;;;;10.68;7.18;;;11.20;87.80;;;;;;5060324;28;20032;-70
2023/08/08 12:47:38;;;;;;;10.73;7.95;;;11.20;87.20;;;;;;5060217;28;20439;-69
2023/08/08 12:50:09;;;;;;;10.98;7.95;;;11.10;87.50;;;;;;5060386;28;20025;-70
2023/08/08 12:52:38;;;;;;;12.13;8.77;;;11.00;87.90;;;;;;5060336;28;20108;-70